sensor_id;sensor_type;location;lat;lon;timestamp;temperature;humidity
14378;DHT22;7272;53.668;9.578;2023-03-14T00:01:10;11.80;99.90
14378;DHT22;7272;53.668;9.578;2023-03-14T00:04:13;11.80;99.90
14378;DHT22;7272;53.668;9.578;2023-03-14T00:07:15;11.80;99.90
14378;DHT22;7272;53.668;9.578;2023-03-14T00:10:17;11.80;99.90
14378;DHT22;7272;53.668;9.578;2023-03-14T00:13:19;11.80;99.90
14378;DHT22;7272;53.668;9.578;2023-03-14T00:16:21;11.70;99.90
14378;DHT22;7272;53.668;9.578;2023-03-14T00:19:24;11.60;99.90
14378;DHT22;7272;53.668;9.578;2023-03-14T00:22:26;11.60;99.90
14378;DHT22;7272;53.668;9.578;2023-03-14T00:25:28;11.60;99.90
14378;DHT22;7272;53.668;9.578;2023-03-14T00:28:30;11.60;99.90
14378;DHT22;7272;53.668;9.578;2023-03-14T00:31:32;11.50;99.90
14378;DHT22;7272;53.668;9.578;2023-03-14T00:34:38;11.50;99.90
14378;DHT22;7272;53.668;9.578;2023-03-14T00:37:40;11.40;99.90
14378;DHT22;7272;53.668;9.578;2023-03-14T00:40:42;11.30;99.90
14378;DHT22;7272;53.668;9.578;2023-03-14T00:43:45;11.30;99.90
14378;DHT22;7272;53.668;9.578;2023-03-14T00:46:46;11.30;99.90
14378;DHT22;7272;53.668;9.578;2023-03-14T00:49:50;11.20;99.90
14378;DHT22;7272;53.668;9.578;2023-03-14T00:52:53;11.20;99.90
14378;DHT22;7272;53.668;9.578;2023-03-14T00:55:55;11.30;99.90
14378;DHT22;7272;53.668;9.578;2023-03-14T00:58:57;11.30;99.90
14378;DHT22;7272;53.668;9.578;2023-03-14T01:01:59;11.30;99.90
14378;DHT22;7272;53.668;9.578;2023-03-14T01:05:04;11.40;99.90
14378;DHT22;7272;53.668;9.578;2023-03-14T01:08:07;11.40;99.90
14378;DHT22;7272;53.668;9.578;2023-03-14T01:11:10;11.50;99.90
14378;DHT22;7272;53.668;9.578;2023-03-14T01:14:12;11.60;99.90
14378;DHT22;7272;53.668;9.578;2023-03-14T01:17:14;11.60;99.90
14378;DHT22;7272;53.668;9.578;2023-03-14T01:20:18;11.70;99.90
14378;DHT22;7272;53.668;9.578;2023-03-14T01:23:20;11.70;99.90
14378;DHT22;7272;53.668;9.578;2023-03-14T01:26:23;11.80;99.90
14378;DHT22;7272;53.668;9.578;2023-03-14T01:29:25;11.80;99.90
14378;DHT22;7272;53.668;9.578;2023-03-14T01:32:27;11.80;99.90
14378;DHT22;7272;53.668;9.578;2023-03-14T01:35:31;11.90;99.90
14378;DHT22;7272;53.668;9.578;2023-03-14T01:38:34;11.90;99.90
14378;DHT22;7272;53.668;9.578;2023-03-14T01:41:37;11.90;99.90
14378;DHT22;7272;53.668;9.578;2023-03-14T01:44:50;11.90;99.90
14378;DHT22;7272;53.668;9.578;2023-03-14T01:47:52;11.90;99.90
14378;DHT22;7272;53.668;9.578;2023-03-14T01:50:56;11.90;99.90
14378;DHT22;7272;53.668;9.578;2023-03-14T01:54:02;11.90;99.90
14378;DHT22;7272;53.668;9.578;2023-03-14T01:57:09;11.80;99.90
14378;DHT22;7272;53.668;9.578;2023-03-14T02:00:14;11.80;99.90
14378;DHT22;7272;53.668;9.578;2023-03-14T02:03:20;11.80;99.90
14378;DHT22;7272;53.668;9.578;2023-03-14T02:06:29;11.80;99.90
14378;DHT22;7272;53.668;9.578;2023-03-14T02:09:38;11.80;99.90
14378;DHT22;7272;53.668;9.578;2023-03-14T02:12:42;11.80;99.90
14378;DHT22;7272;53.668;9.578;2023-03-14T02:16:22;11.70;99.90
14378;DHT22;7272;53.668;9.578;2023-03-14T02:19:55;11.70;99.90
14378;DHT22;7272;53.668;9.578;2023-03-14T02:23:18;11.70;99.90
14378;DHT22;7272;53.668;9.578;2023-03-14T02:26:24;11.70;99.90
14378;DHT22;7272;53.668;9.578;2023-03-14T02:29:31;11.70;99.90
14378;DHT22;7272;53.668;9.578;2023-03-14T02:32:38;11.70;99.90
14378;DHT22;7272;53.668;9.578;2023-03-14T02:35:43;11.70;99.90
14378;DHT22;7272;53.668;9.578;2023-03-14T02:38:47;11.70;99.90
14378;DHT22;7272;53.668;9.578;2023-03-14T02:41:53;11.70;99.90
14378;DHT22;7272;53.668;9.578;2023-03-14T02:45:21;11.70;99.90
14378;DHT22;7272;53.668;9.578;2023-03-14T02:48:26;11.70;99.90
14378;DHT22;7272;53.668;9.578;2023-03-14T02:51:29;11.80;99.90
14378;DHT22;7272;53.668;9.578;2023-03-14T02:54:31;11.80;99.90
14378;DHT22;7272;53.668;9.578;2023-03-14T02:57:33;11.80;99.90
14378;DHT22;7272;53.668;9.578;2023-03-14T03:00:40;11.80;99.90
14378;DHT22;7272;53.668;9.578;2023-03-14T03:03:44;11.80;99.90
14378;DHT22;7272;53.668;9.578;2023-03-14T03:06:46;11.80;99.90
14378;DHT22;7272;53.668;9.578;2023-03-14T03:09:49;11.80;99.90
14378;DHT22;7272;53.668;9.578;2023-03-14T03:12:51;11.80;99.90
14378;DHT22;7272;53.668;9.578;2023-03-14T03:15:58;11.80;99.90
14378;DHT22;7272;53.668;9.578;2023-03-14T03:19:00;11.80;99.90
14378;DHT22;7272;53.668;9.578;2023-03-14T03:22:02;11.80;99.90
14378;DHT22;7272;53.668;9.578;2023-03-14T03:25:06;11.90;99.90
14378;DHT22;7272;53.668;9.578;2023-03-14T03:28:08;11.90;99.90
14378;DHT22;7272;53.668;9.578;2023-03-14T03:31:14;11.90;99.90
14378;DHT22;7272;53.668;9.578;2023-03-14T03:34:16;11.90;99.90
14378;DHT22;7272;53.668;9.578;2023-03-14T03:37:20;12.00;99.90
14378;DHT22;7272;53.668;9.578;2023-03-14T03:40:22;11.90;99.90
14378;DHT22;7272;53.668;9.578;2023-03-14T03:43:24;11.90;99.90
14378;DHT22;7272;53.668;9.578;2023-03-14T03:46:28;11.90;99.90
14378;DHT22;7272;53.668;9.578;2023-03-14T03:49:30;11.90;99.90
14378;DHT22;7272;53.668;9.578;2023-03-14T03:52:34;11.80;99.90
14378;DHT22;7272;53.668;9.578;2023-03-14T03:55:36;11.80;99.90
14378;DHT22;7272;53.668;9.578;2023-03-14T03:58:38;11.80;99.90
14378;DHT22;7272;53.668;9.578;2023-03-14T04:01:41;11.90;99.90
14378;DHT22;7272;53.668;9.578;2023-03-14T04:04:43;11.90;99.90
14378;DHT22;7272;53.668;9.578;2023-03-14T04:07:46;11.90;99.90
14378;DHT22;7272;53.668;9.578;2023-03-14T04:10:55;11.90;99.90
14378;DHT22;7272;53.668;9.578;2023-03-14T04:14:08;11.90;99.90
14378;DHT22;7272;53.668;9.578;2023-03-14T04:17:11;11.80;99.90
14378;DHT22;7272;53.668;9.578;2023-03-14T04:20:13;11.60;99.90
14378;DHT22;7272;53.668;9.578;2023-03-14T04:23:15;11.40;99.90
14378;DHT22;7272;53.668;9.578;2023-03-14T04:26:18;11.20;99.90
14378;DHT22;7272;53.668;9.578;2023-03-14T04:29:20;11.10;99.90
14378;DHT22;7272;53.668;9.578;2023-03-14T04:32:24;11.10;99.90
14378;DHT22;7272;53.668;9.578;2023-03-14T04:35:26;11.10;99.90
14378;DHT22;7272;53.668;9.578;2023-03-14T04:38:33;10.90;99.90
14378;DHT22;7272;53.668;9.578;2023-03-14T04:41:35;10.80;99.90
14378;DHT22;7272;53.668;9.578;2023-03-14T04:44:38;10.70;99.90
14378;DHT22;7272;53.668;9.578;2023-03-14T04:47:42;10.70;99.90
14378;DHT22;7272;53.668;9.578;2023-03-14T04:50:48;10.60;99.90
14378;DHT22;7272;53.668;9.578;2023-03-14T04:53:51;10.60;99.90
14378;DHT22;7272;53.668;9.578;2023-03-14T04:56:53;10.60;99.90
14378;DHT22;7272;53.668;9.578;2023-03-14T04:59:55;10.60;99.90
14378;DHT22;7272;53.668;9.578;2023-03-14T05:03:16;10.50;99.90
14378;DHT22;7272;53.668;9.578;2023-03-14T05:06:18;10.50;99.90
14378;DHT22;7272;53.668;9.578;2023-03-14T05:09:23;10.50;99.90
14378;DHT22;7272;53.668;9.578;2023-03-14T05:12:56;10.50;99.90
14378;DHT22;7272;53.668;9.578;2023-03-14T05:16:29;10.60;99.90
14378;DHT22;7272;53.668;9.578;2023-03-14T05:19:40;10.60;99.90
14378;DHT22;7272;53.668;9.578;2023-03-14T05:23:08;10.50;99.90
14378;DHT22;7272;53.668;9.578;2023-03-14T05:26:31;10.50;99.90
14378;DHT22;7272;53.668;9.578;2023-03-14T05:29:51;10.50;99.90
14378;DHT22;7272;53.668;9.578;2023-03-14T05:33:12;10.40;99.90
14378;DHT22;7272;53.668;9.578;2023-03-14T05:36:28;10.40;99.90
14378;DHT22;7272;53.668;9.578;2023-03-14T05:39:46;10.40;99.90
14378;DHT22;7272;53.668;9.578;2023-03-14T05:43:09;10.40;99.90
14378;DHT22;7272;53.668;9.578;2023-03-14T05:46:14;10.30;99.90
14378;DHT22;7272;53.668;9.578;2023-03-14T05:49:24;10.40;99.90
14378;DHT22;7272;53.668;9.578;2023-03-14T05:52:53;10.30;99.90
14378;DHT22;7272;53.668;9.578;2023-03-14T05:56:19;10.40;99.90
14378;DHT22;7272;53.668;9.578;2023-03-14T05:59:33;10.40;99.90
14378;DHT22;7272;53.668;9.578;2023-03-14T06:02:41;10.40;99.90
14378;DHT22;7272;53.668;9.578;2023-03-14T06:05:53;10.40;99.90
14378;DHT22;7272;53.668;9.578;2023-03-14T06:08:58;10.40;99.90
14378;DHT22;7272;53.668;9.578;2023-03-14T06:12:01;10.40;99.90
14378;DHT22;7272;53.668;9.578;2023-03-14T06:15:09;10.40;99.90
14378;DHT22;7272;53.668;9.578;2023-03-14T06:18:11;10.40;99.90
14378;DHT22;7272;53.668;9.578;2023-03-14T06:21:15;10.50;99.90
14378;DHT22;7272;53.668;9.578;2023-03-14T06:24:19;10.50;99.90
14378;DHT22;7272;53.668;9.578;2023-03-14T06:27:24;10.60;99.90
14378;DHT22;7272;53.668;9.578;2023-03-14T06:30:29;10.60;99.90
14378;DHT22;7272;53.668;9.578;2023-03-14T06:33:31;10.70;99.90
14378;DHT22;7272;53.668;9.578;2023-03-14T06:36:34;10.80;99.90
14378;DHT22;7272;53.668;9.578;2023-03-14T06:39:38;10.90;99.90
14378;DHT22;7272;53.668;9.578;2023-03-14T06:42:48;10.90;99.90
14378;DHT22;7272;53.668;9.578;2023-03-14T06:45:51;10.90;99.90
14378;DHT22;7272;53.668;9.578;2023-03-14T06:48:53;10.90;99.90
14378;DHT22;7272;53.668;9.578;2023-03-14T06:51:56;10.90;99.90
14378;DHT22;7272;53.668;9.578;2023-03-14T06:55:00;10.90;99.90
14378;DHT22;7272;53.668;9.578;2023-03-14T06:58:06;11.00;99.90
14378;DHT22;7272;53.668;9.578;2023-03-14T07:01:19;11.00;99.90
14378;DHT22;7272;53.668;9.578;2023-03-14T07:04:22;11.10;99.90
14378;DHT22;7272;53.668;9.578;2023-03-14T07:07:24;11.10;99.90
14378;DHT22;7272;53.668;9.578;2023-03-14T07:10:27;11.10;99.90
14378;DHT22;7272;53.668;9.578;2023-03-14T07:13:29;11.10;99.90
14378;DHT22;7272;53.668;9.578;2023-03-14T07:16:37;11.20;99.90
14378;DHT22;7272;53.668;9.578;2023-03-14T07:19:38;11.20;99.90
14378;DHT22;7272;53.668;9.578;2023-03-14T07:22:43;11.20;99.90
14378;DHT22;7272;53.668;9.578;2023-03-14T07:25:46;11.20;99.90
14378;DHT22;7272;53.668;9.578;2023-03-14T07:28:50;11.20;99.90
14378;DHT22;7272;53.668;9.578;2023-03-14T07:31:54;11.20;99.90
14378;DHT22;7272;53.668;9.578;2023-03-14T07:34:57;11.20;99.90
14378;DHT22;7272;53.668;9.578;2023-03-14T07:37:59;11.10;99.90
14378;DHT22;7272;53.668;9.578;2023-03-14T07:41:09;11.20;99.90
14378;DHT22;7272;53.668;9.578;2023-03-14T07:44:17;11.20;99.90
14378;DHT22;7272;53.668;9.578;2023-03-14T07:47:19;11.30;99.90
14378;DHT22;7272;53.668;9.578;2023-03-14T07:50:21;11.50;99.90
14378;DHT22;7272;53.668;9.578;2023-03-14T07:53:23;11.70;99.90
14378;DHT22;7272;53.668;9.578;2023-03-14T07:56:27;11.80;99.90
14378;DHT22;7272;53.668;9.578;2023-03-14T07:59:29;11.80;99.90
14378;DHT22;7272;53.668;9.578;2023-03-14T08:02:31;11.80;99.90
14378;DHT22;7272;53.668;9.578;2023-03-14T08:05:34;11.70;99.90
14378;DHT22;7272;53.668;9.578;2023-03-14T08:08:36;11.60;99.90
14378;DHT22;7272;53.668;9.578;2023-03-14T08:11:40;11.60;99.90
14378;DHT22;7272;53.668;9.578;2023-03-14T08:14:42;11.60;99.90
14378;DHT22;7272;53.668;9.578;2023-03-14T08:17:44;11.50;99.90
14378;DHT22;7272;53.668;9.578;2023-03-14T08:20:46;11.50;99.90
14378;DHT22;7272;53.668;9.578;2023-03-14T08:23:47;11.50;99.90
14378;DHT22;7272;53.668;9.578;2023-03-14T08:26:51;11.50;99.90
14378;DHT22;7272;53.668;9.578;2023-03-14T08:29:52;11.50;99.90
14378;DHT22;7272;53.668;9.578;2023-03-14T08:32:56;11.50;99.90
14378;DHT22;7272;53.668;9.578;2023-03-14T08:35:59;11.40;99.90
14378;DHT22;7272;53.668;9.578;2023-03-14T08:39:02;11.40;99.90
14378;DHT22;7272;53.668;9.578;2023-03-14T08:42:05;11.40;99.90
14378;DHT22;7272;53.668;9.578;2023-03-14T08:45:10;11.40;99.90
14378;DHT22;7272;53.668;9.578;2023-03-14T08:48:12;11.40;99.90
14378;DHT22;7272;53.668;9.578;2023-03-14T08:51:14;11.30;99.90
14378;DHT22;7272;53.668;9.578;2023-03-14T08:54:16;11.30;99.90
14378;DHT22;7272;53.668;9.578;2023-03-14T08:57:20;11.20;99.90
14378;DHT22;7272;53.668;9.578;2023-03-14T09:00:22;11.20;99.90
14378;DHT22;7272;53.668;9.578;2023-03-14T09:03:24;11.20;99.90
14378;DHT22;7272;53.668;9.578;2023-03-14T09:06:26;11.10;99.90
14378;DHT22;7272;53.668;9.578;2023-03-14T09:09:28;11.10;99.90
14378;DHT22;7272;53.668;9.578;2023-03-14T09:12:32;11.10;99.90
14378;DHT22;7272;53.668;9.578;2023-03-14T09:15:34;11.00;99.90
14378;DHT22;7272;53.668;9.578;2023-03-14T09:18:36;11.00;99.90
14378;DHT22;7272;53.668;9.578;2023-03-14T09:21:38;10.10;99.90
14378;DHT22;7272;53.668;9.578;2023-03-14T09:24:40;9.30;99.90
14378;DHT22;7272;53.668;9.578;2023-03-14T09:27:43;8.70;99.90
14378;DHT22;7272;53.668;9.578;2023-03-14T09:30:45;8.30;99.90
14378;DHT22;7272;53.668;9.578;2023-03-14T09:33:47;8.00;99.90
14378;DHT22;7272;53.668;9.578;2023-03-14T09:36:49;7.70;99.90
14378;DHT22;7272;53.668;9.578;2023-03-14T09:39:51;7.40;99.90
14378;DHT22;7272;53.668;9.578;2023-03-14T09:42:54;7.30;99.90
14378;DHT22;7272;53.668;9.578;2023-03-14T09:45:57;7.30;99.90
14378;DHT22;7272;53.668;9.578;2023-03-14T09:49:00;7.20;99.90
14378;DHT22;7272;53.668;9.578;2023-03-14T09:52:07;6.90;99.90
14378;DHT22;7272;53.668;9.578;2023-03-14T09:55:14;6.70;99.90
14378;DHT22;7272;53.668;9.578;2023-03-14T09:58:21;6.60;99.90
14378;DHT22;7272;53.668;9.578;2023-03-14T10:01:26;6.50;99.90
14378;DHT22;7272;53.668;9.578;2023-03-14T10:04:28;6.40;99.90
14378;DHT22;7272;53.668;9.578;2023-03-14T10:07:33;6.30;99.90
14378;DHT22;7272;53.668;9.578;2023-03-14T10:10:35;6.20;99.90
14378;DHT22;7272;53.668;9.578;2023-03-14T10:13:48;6.10;99.90
14378;DHT22;7272;53.668;9.578;2023-03-14T10:16:50;6.00;99.90
14378;DHT22;7272;53.668;9.578;2023-03-14T10:19:54;5.80;99.90
14378;DHT22;7272;53.668;9.578;2023-03-14T10:22:56;5.90;99.90
14378;DHT22;7272;53.668;9.578;2023-03-14T10:26:03;5.90;99.90
14378;DHT22;7272;53.668;9.578;2023-03-14T10:29:11;6.00;99.90
14378;DHT22;7272;53.668;9.578;2023-03-14T10:32:19;6.00;99.90
14378;DHT22;7272;53.668;9.578;2023-03-14T10:35:23;5.80;99.90
14378;DHT22;7272;53.668;9.578;2023-03-14T10:38:27;5.70;99.90
14378;DHT22;7272;53.668;9.578;2023-03-14T10:41:31;5.60;99.90
14378;DHT22;7272;53.668;9.578;2023-03-14T10:44:35;5.50;99.90
14378;DHT22;7272;53.668;9.578;2023-03-14T10:47:48;5.60;99.90
14378;DHT22;7272;53.668;9.578;2023-03-14T10:50:55;5.80;99.90
14378;DHT22;7272;53.668;9.578;2023-03-14T10:53:59;5.80;99.90
14378;DHT22;7272;53.668;9.578;2023-03-14T10:57:04;5.90;99.90
14378;DHT22;7272;53.668;9.578;2023-03-14T11:00:12;5.80;99.90
14378;DHT22;7272;53.668;9.578;2023-03-14T11:03:16;5.60;99.90
14378;DHT22;7272;53.668;9.578;2023-03-14T11:06:23;5.60;99.90
14378;DHT22;7272;53.668;9.578;2023-03-14T11:09:33;5.80;99.90
14378;DHT22;7272;53.668;9.578;2023-03-14T11:12:44;5.70;99.90
14378;DHT22;7272;53.668;9.578;2023-03-14T11:15:59;5.70;99.90
14378;DHT22;7272;53.668;9.578;2023-03-14T11:19:10;5.90;99.90
14378;DHT22;7272;53.668;9.578;2023-03-14T11:22:20;6.00;99.90
14378;DHT22;7272;53.668;9.578;2023-03-14T11:25:27;6.10;99.90
14378;DHT22;7272;53.668;9.578;2023-03-14T11:28:36;6.00;99.90
14378;DHT22;7272;53.668;9.578;2023-03-14T11:31:43;5.90;99.90
14378;DHT22;7272;53.668;9.578;2023-03-14T11:34:50;5.90;99.90
14378;DHT22;7272;53.668;9.578;2023-03-14T11:37:55;5.90;99.90
14378;DHT22;7272;53.668;9.578;2023-03-14T11:41:00;6.10;99.90
14378;DHT22;7272;53.668;9.578;2023-03-14T11:44:10;6.10;99.90
14378;DHT22;7272;53.668;9.578;2023-03-14T11:47:20;6.20;99.90
14378;DHT22;7272;53.668;9.578;2023-03-14T11:50:27;6.30;99.90
14378;DHT22;7272;53.668;9.578;2023-03-14T11:53:39;6.40;99.90
14378;DHT22;7272;53.668;9.578;2023-03-14T11:56:47;6.60;99.90
14378;DHT22;7272;53.668;9.578;2023-03-14T11:59:56;6.60;99.90
14378;DHT22;7272;53.668;9.578;2023-03-14T12:03:09;6.70;99.90
14378;DHT22;7272;53.668;9.578;2023-03-14T12:06:16;6.70;99.90
14378;DHT22;7272;53.668;9.578;2023-03-14T12:09:22;6.60;99.90
14378;DHT22;7272;53.668;9.578;2023-03-14T12:12:25;6.60;99.90
14378;DHT22;7272;53.668;9.578;2023-03-14T12:15:28;6.70;99.90
14378;DHT22;7272;53.668;9.578;2023-03-14T12:18:33;6.80;99.90
14378;DHT22;7272;53.668;9.578;2023-03-14T12:21:47;6.80;99.90
14378;DHT22;7272;53.668;9.578;2023-03-14T12:24:52;6.60;99.90
14378;DHT22;7272;53.668;9.578;2023-03-14T12:28:18;6.30;99.90
14378;DHT22;7272;53.668;9.578;2023-03-14T12:31:37;6.00;99.90
14378;DHT22;7272;53.668;9.578;2023-03-14T12:34:42;6.00;99.90
14378;DHT22;7272;53.668;9.578;2023-03-14T12:37:48;6.20;99.90
14378;DHT22;7272;53.668;9.578;2023-03-14T12:40:58;6.40;99.90
14378;DHT22;7272;53.668;9.578;2023-03-14T12:44:37;6.60;99.90
14378;DHT22;7272;53.668;9.578;2023-03-14T12:47:53;6.70;99.90
14378;DHT22;7272;53.668;9.578;2023-03-14T12:51:01;6.70;99.90
14378;DHT22;7272;53.668;9.578;2023-03-14T12:54:21;6.80;99.90
14378;DHT22;7272;53.668;9.578;2023-03-14T12:57:26;6.80;99.90
14378;DHT22;7272;53.668;9.578;2023-03-14T13:00:31;6.90;99.90
14378;DHT22;7272;53.668;9.578;2023-03-14T13:03:39;7.10;99.90
14378;DHT22;7272;53.668;9.578;2023-03-14T13:06:53;7.10;99.90
14378;DHT22;7272;53.668;9.578;2023-03-14T13:10:02;7.30;99.90
14378;DHT22;7272;53.668;9.578;2023-03-14T13:13:15;7.30;99.90
14378;DHT22;7272;53.668;9.578;2023-03-14T13:16:19;7.20;99.90
14378;DHT22;7272;53.668;9.578;2023-03-14T13:19:25;7.00;99.90
14378;DHT22;7272;53.668;9.578;2023-03-14T13:22:33;7.20;99.90
14378;DHT22;7272;53.668;9.578;2023-03-14T13:25:37;7.50;99.90
14378;DHT22;7272;53.668;9.578;2023-03-14T13:28:39;7.50;99.90
14378;DHT22;7272;53.668;9.578;2023-03-14T13:31:43;7.30;99.90
14378;DHT22;7272;53.668;9.578;2023-03-14T13:34:46;7.10;99.90
14378;DHT22;7272;53.668;9.578;2023-03-14T13:37:55;6.90;99.90
14378;DHT22;7272;53.668;9.578;2023-03-14T13:40:59;6.70;99.90
14378;DHT22;7272;53.668;9.578;2023-03-14T13:44:05;6.70;99.90
14378;DHT22;7272;53.668;9.578;2023-03-14T13:47:12;6.80;99.90
14378;DHT22;7272;53.668;9.578;2023-03-14T13:50:17;6.90;99.90
14378;DHT22;7272;53.668;9.578;2023-03-14T13:53:20;6.90;99.90
14378;DHT22;7272;53.668;9.578;2023-03-14T13:56:25;6.90;99.90
14378;DHT22;7272;53.668;9.578;2023-03-14T13:59:29;6.90;99.90
14378;DHT22;7272;53.668;9.578;2023-03-14T14:02:32;6.90;99.90
14378;DHT22;7272;53.668;9.578;2023-03-14T14:05:34;6.90;99.90
14378;DHT22;7272;53.668;9.578;2023-03-14T14:08:41;6.80;99.90
14378;DHT22;7272;53.668;9.578;2023-03-14T14:11:47;6.80;99.90
14378;DHT22;7272;53.668;9.578;2023-03-14T14:14:53;6.80;99.90
14378;DHT22;7272;53.668;9.578;2023-03-14T14:17:58;6.90;99.90
14378;DHT22;7272;53.668;9.578;2023-03-14T14:21:02;7.10;99.90
14378;DHT22;7272;53.668;9.578;2023-03-14T14:24:07;7.30;99.90
14378;DHT22;7272;53.668;9.578;2023-03-14T14:27:13;7.10;99.90
14378;DHT22;7272;53.668;9.578;2023-03-14T14:30:28;6.90;99.90
14378;DHT22;7272;53.668;9.578;2023-03-14T14:33:38;6.90;99.90
14378;DHT22;7272;53.668;9.578;2023-03-14T14:36:42;6.90;99.90
14378;DHT22;7272;53.668;9.578;2023-03-14T14:39:53;6.80;99.90
14378;DHT22;7272;53.668;9.578;2023-03-14T14:43:02;6.80;99.90
14378;DHT22;7272;53.668;9.578;2023-03-14T14:46:07;6.80;99.90
14378;DHT22;7272;53.668;9.578;2023-03-14T14:49:12;7.00;99.90
14378;DHT22;7272;53.668;9.578;2023-03-14T14:52:16;7.10;99.90
14378;DHT22;7272;53.668;9.578;2023-03-14T14:55:20;7.00;99.90
14378;DHT22;7272;53.668;9.578;2023-03-14T14:58:24;6.90;99.90
14378;DHT22;7272;53.668;9.578;2023-03-14T15:01:32;6.80;99.90
14378;DHT22;7272;53.668;9.578;2023-03-14T15:04:34;7.00;99.90
14378;DHT22;7272;53.668;9.578;2023-03-14T15:07:36;7.00;99.90
14378;DHT22;7272;53.668;9.578;2023-03-14T15:10:40;6.90;99.90
14378;DHT22;7272;53.668;9.578;2023-03-14T15:13:41;6.80;99.90
14378;DHT22;7272;53.668;9.578;2023-03-14T15:16:43;6.70;99.90
14378;DHT22;7272;53.668;9.578;2023-03-14T15:19:46;6.60;99.90
14378;DHT22;7272;53.668;9.578;2023-03-14T15:22:48;6.50;99.90
14378;DHT22;7272;53.668;9.578;2023-03-14T15:25:51;6.40;99.90
14378;DHT22;7272;53.668;9.578;2023-03-14T15:28:53;6.40;99.90
14378;DHT22;7272;53.668;9.578;2023-03-14T15:31:55;6.40;99.90
14378;DHT22;7272;53.668;9.578;2023-03-14T15:34:57;6.40;99.90
14378;DHT22;7272;53.668;9.578;2023-03-14T15:37:59;6.40;99.90
14378;DHT22;7272;53.668;9.578;2023-03-14T15:41:02;6.50;99.90
14378;DHT22;7272;53.668;9.578;2023-03-14T15:44:04;6.40;99.90
14378;DHT22;7272;53.668;9.578;2023-03-14T15:47:08;6.30;99.90
14378;DHT22;7272;53.668;9.578;2023-03-14T15:50:11;6.20;99.90
14378;DHT22;7272;53.668;9.578;2023-03-14T15:53:13;6.20;99.90
14378;DHT22;7272;53.668;9.578;2023-03-14T15:56:18;6.20;99.90
14378;DHT22;7272;53.668;9.578;2023-03-14T15:59:20;6.30;99.90
14378;DHT22;7272;53.668;9.578;2023-03-14T16:02:23;6.30;99.90
14378;DHT22;7272;53.668;9.578;2023-03-14T16:05:24;6.40;99.90
14378;DHT22;7272;53.668;9.578;2023-03-14T16:08:27;6.20;99.90
14378;DHT22;7272;53.668;9.578;2023-03-14T16:11:31;6.10;99.90
14378;DHT22;7272;53.668;9.578;2023-03-14T16:14:33;6.00;99.90
14378;DHT22;7272;53.668;9.578;2023-03-14T16:17:35;5.90;99.90
14378;DHT22;7272;53.668;9.578;2023-03-14T16:20:38;5.90;99.90
14378;DHT22;7272;53.668;9.578;2023-03-14T16:23:40;5.90;99.90
14378;DHT22;7272;53.668;9.578;2023-03-14T16:26:43;6.10;99.90
14378;DHT22;7272;53.668;9.578;2023-03-14T16:29:46;6.20;99.90
14378;DHT22;7272;53.668;9.578;2023-03-14T16:32:48;6.20;99.90
14378;DHT22;7272;53.668;9.578;2023-03-14T16:35:54;6.10;99.90
14378;DHT22;7272;53.668;9.578;2023-03-14T16:38:56;6.10;99.90
14378;DHT22;7272;53.668;9.578;2023-03-14T16:41:59;6.10;99.90
14378;DHT22;7272;53.668;9.578;2023-03-14T16:45:01;6.00;99.90
14378;DHT22;7272;53.668;9.578;2023-03-14T16:48:03;5.90;99.90
14378;DHT22;7272;53.668;9.578;2023-03-14T16:51:05;5.90;99.90
14378;DHT22;7272;53.668;9.578;2023-03-14T16:54:07;5.70;99.90
14378;DHT22;7272;53.668;9.578;2023-03-14T16:57:10;5.60;99.90
14378;DHT22;7272;53.668;9.578;2023-03-14T17:00:13;5.60;99.90
14378;DHT22;7272;53.668;9.578;2023-03-14T17:03:16;5.50;99.90
14378;DHT22;7272;53.668;9.578;2023-03-14T17:06:21;5.50;99.90
14378;DHT22;7272;53.668;9.578;2023-03-14T17:09:24;5.50;99.90
14378;DHT22;7272;53.668;9.578;2023-03-14T17:12:27;5.40;99.90
14378;DHT22;7272;53.668;9.578;2023-03-14T17:15:29;5.40;99.90
14378;DHT22;7272;53.668;9.578;2023-03-14T17:18:31;5.40;99.90
14378;DHT22;7272;53.668;9.578;2023-03-14T17:21:33;5.30;99.90
14378;DHT22;7272;53.668;9.578;2023-03-14T17:24:35;5.30;99.90
14378;DHT22;7272;53.668;9.578;2023-03-14T17:27:39;5.30;99.90
14378;DHT22;7272;53.668;9.578;2023-03-14T17:30:41;5.20;99.90
14378;DHT22;7272;53.668;9.578;2023-03-14T17:33:43;5.20;99.90
14378;DHT22;7272;53.668;9.578;2023-03-14T17:36:45;5.20;99.90
14378;DHT22;7272;53.668;9.578;2023-03-14T17:39:47;5.20;99.90
14378;DHT22;7272;53.668;9.578;2023-03-14T17:42:50;5.10;99.90
14378;DHT22;7272;53.668;9.578;2023-03-14T17:45:56;5.10;99.90
14378;DHT22;7272;53.668;9.578;2023-03-14T17:48:58;5.10;99.90
14378;DHT22;7272;53.668;9.578;2023-03-14T17:52:00;5.10;99.90
14378;DHT22;7272;53.668;9.578;2023-03-14T17:55:03;5.10;99.90
14378;DHT22;7272;53.668;9.578;2023-03-14T17:58:07;5.00;99.90
14378;DHT22;7272;53.668;9.578;2023-03-14T18:01:13;5.00;99.90
14378;DHT22;7272;53.668;9.578;2023-03-14T18:04:15;5.10;99.90
14378;DHT22;7272;53.668;9.578;2023-03-14T18:07:18;5.10;99.90
14378;DHT22;7272;53.668;9.578;2023-03-14T18:10:21;5.10;99.90
14378;DHT22;7272;53.668;9.578;2023-03-14T18:13:24;5.10;99.90
14378;DHT22;7272;53.668;9.578;2023-03-14T18:16:26;5.00;99.90
14378;DHT22;7272;53.668;9.578;2023-03-14T18:19:28;4.80;99.90
14378;DHT22;7272;53.668;9.578;2023-03-14T18:22:30;4.70;99.90
14378;DHT22;7272;53.668;9.578;2023-03-14T18:25:33;4.50;99.90
14378;DHT22;7272;53.668;9.578;2023-03-14T18:28:36;4.40;99.90
14378;DHT22;7272;53.668;9.578;2023-03-14T18:31:38;4.30;99.90
14378;DHT22;7272;53.668;9.578;2023-03-14T18:34:39;4.30;99.90
14378;DHT22;7272;53.668;9.578;2023-03-14T18:37:42;4.30;99.90
14378;DHT22;7272;53.668;9.578;2023-03-14T18:40:44;4.30;99.90
14378;DHT22;7272;53.668;9.578;2023-03-14T18:43:47;4.30;99.90
14378;DHT22;7272;53.668;9.578;2023-03-14T18:46:50;4.30;99.90
14378;DHT22;7272;53.668;9.578;2023-03-14T18:49:51;4.30;99.90
14378;DHT22;7272;53.668;9.578;2023-03-14T18:52:53;4.30;99.90
14378;DHT22;7272;53.668;9.578;2023-03-14T18:55:55;4.30;99.90
14378;DHT22;7272;53.668;9.578;2023-03-14T18:58:58;4.30;99.90
14378;DHT22;7272;53.668;9.578;2023-03-14T19:02:00;4.30;99.90
14378;DHT22;7272;53.668;9.578;2023-03-14T19:05:03;4.30;99.90
14378;DHT22;7272;53.668;9.578;2023-03-14T19:08:05;4.30;99.90
14378;DHT22;7272;53.668;9.578;2023-03-14T19:11:09;4.30;99.90
14378;DHT22;7272;53.668;9.578;2023-03-14T19:14:13;4.30;99.90
14378;DHT22;7272;53.668;9.578;2023-03-14T19:17:17;4.30;99.90
14378;DHT22;7272;53.668;9.578;2023-03-14T19:20:19;4.30;99.90
14378;DHT22;7272;53.668;9.578;2023-03-14T19:23:21;4.30;99.90
14378;DHT22;7272;53.668;9.578;2023-03-14T19:26:24;4.30;99.90
14378;DHT22;7272;53.668;9.578;2023-03-14T19:29:29;4.30;99.90
14378;DHT22;7272;53.668;9.578;2023-03-14T19:32:36;4.40;99.90
14378;DHT22;7272;53.668;9.578;2023-03-14T19:35:38;4.40;99.90
14378;DHT22;7272;53.668;9.578;2023-03-14T19:38:40;4.50;99.90
14378;DHT22;7272;53.668;9.578;2023-03-14T19:41:42;4.50;99.90
14378;DHT22;7272;53.668;9.578;2023-03-14T19:44:45;4.40;99.90
14378;DHT22;7272;53.668;9.578;2023-03-14T19:47:47;4.40;99.90
14378;DHT22;7272;53.668;9.578;2023-03-14T19:50:49;4.40;99.90
14378;DHT22;7272;53.668;9.578;2023-03-14T19:53:51;4.40;99.90
14378;DHT22;7272;53.668;9.578;2023-03-14T19:56:53;4.40;99.90
14378;DHT22;7272;53.668;9.578;2023-03-14T19:59:57;4.30;99.90